This is the latest recevied weather packets stored in our database for station/object TG5ALY-15. If no packets are shown the sender has not sent any weather packets the latest 10 day(s).
| Time | Temp. | Humidity | Pressure | Rain* | Wind** | Luminosity | Snow |
|---|---|---|---|---|---|---|---|
| 1777877863 | 11.67° C | 94% | 1030.8 hPa | 0 mm | - | 0 W/m² | - |
| 1777876663 | 11.67° C | 93% | 1031.3 hPa | 0 mm | - | 0 W/m² | - |
| 1777875460 | 11.67° C | 93% | 1031.7 hPa | 0 mm | - | 0 W/m² | - |
| 1777874259 | 11.67° C | 95% | 1031.7 hPa | 0 mm | - | 0 W/m² | - |
| 1777873059 | 11.67° C | 95% | 1031.7 hPa | 0 mm | - | 0 W/m² | - |
| 1777871859 | 11.67° C | 97% | 1031.7 hPa | 0 mm | - | 0 W/m² | - |
| 1777870658 | 11.11° C | 97% | 1032.1 hPa | 0 mm | - | 0 W/m² | - |
| 1777869457 | 11.11° C | 97% | 1032.1 hPa | 0 mm | - | 0 W/m² | - |
| 1777868256 | 11.67° C | 97% | 1032.6 hPa | 0 mm | - | 0 W/m² | - |
| 1777867053 | 12.22° C | 97% | 1032.6 hPa | 0 mm | - | 0 W/m² | - |
| 1777865849 | 12.22° C | 97% | 1032.6 hPa | 0 mm | - | 0 W/m² | - |
| 1777846124 | 21.11° C | 50% | 1028.3 hPa | 0 mm | - | 196 W/m² | - |
| 1777842517 | 21.11° C | 46% | 1029.2 hPa | 0 mm | - | 396 W/m² | - |
| 1777840109 | 21.67° C | 47% | 1029.2 hPa | 0 mm | - | 884 W/m² | - |
| 1777832892 | 18.89° C | 65% | 1031.3 hPa | 0 mm | - | 363 W/m² | - |
| 1777831687 | 19.44° C | 64% | 1031.7 hPa | 0 mm | - | 258 W/m² | - |
| 1777830486 | 18.33° C | 69% | 1032.1 hPa | 0 mm | - | 250 W/m² | - |
| 1777825681 | 19.44° C | 61% | 1032.1 hPa | 0 mm | - | 563 W/m² | - |
| 1777824481 | 18.89° C | 64% | 1032.1 hPa | 0 mm | - | 425 W/m² | - |
| 1777822075 | 17.78° C | 68% | 1031.7 hPa | 0 mm | - | 256 W/m² | - |
| 1777820875 | 17.78° C | 68% | 1031.3 hPa | 0 mm | - | 273 W/m² | - |
| 1777817274 | 16.67° C | 69% | 1031.3 hPa | 0 mm | - | 331 W/m² | - |
| 1777814874 | 15° C | 77% | 1030.8 hPa | 0 mm | - | 221 W/m² | - |
| 1777808859 | 13.89° C | 88% | 1030.8 hPa | 0 mm | - | 3 W/m² | - |
| 1777807654 | 13.89° C | 90% | 1030.8 hPa | 0 mm | - | 0 W/m² | - |
* Rain latest hour (hover to see other rain measurements)
** Current wind speed in m/s (hover to see current wind gust speed)